Picton, Canada
Current Conditions -  °F | °C
As of 8:00 PM on Tuesday 27 Jan 2015 (Local Time) from CYTR Reporting Station
Few Clouds Few Clouds  
Wind Chill:   Ceiling: Unl
Heat Index: 14°   Visibility: 15mi
Dew Point: -11°   Wind: 8mph
Humidity: 32%   Direction: 360°N
Pressure: 30.1"   Gusts: NA
Location:  44.01°N, 77.14°W
Report Text: CYTR 280100Z 36007KT 15SM FEW250 M10/M24 A3010 RMK CI0 SLP199
Loading
Personal Weather Stations






























Interactive Weather Map New forecast layout! Learn more

10-Day Weather Forecast

Advertisements
Track Severe Weather on mobile